createdAt,value
2022-08-01T00:01:32.625Z,57.80
2022-08-01T00:04:01.384Z,57.70
2022-08-01T00:06:29.905Z,57.60
2022-08-01T00:08:58.038Z,57.70
2022-08-01T00:11:26.337Z,57.80
2022-08-01T00:13:55.493Z,58.00
2022-08-01T00:16:24.466Z,58.10
2022-08-01T00:18:54.573Z,58.20
2022-08-01T00:21:23.380Z,58.10
2022-08-01T00:23:51.519Z,58.40
2022-08-01T00:26:19.727Z,58.30
2022-08-01T00:28:48.418Z,58.10
2022-08-01T00:31:16.662Z,58.10
2022-08-01T00:33:45.055Z,57.90
2022-08-01T00:36:14.832Z,58.10
2022-08-01T00:38:42.953Z,58.00
2022-08-01T00:41:11.079Z,58.00
2022-08-01T00:43:39.286Z,57.70
2022-08-01T00:46:07.460Z,58.20
2022-08-01T00:48:35.648Z,57.80
2022-08-01T00:51:05.967Z,58.30
2022-08-01T00:53:51.448Z,58.40
2022-08-01T00:56:22.339Z,58.60
2022-08-01T00:58:50.732Z,58.80
2022-08-01T01:01:21.618Z,58.90
2022-08-01T01:03:59.429Z,59.10
2022-08-01T01:06:37.662Z,59.30
2022-08-01T01:09:31.067Z,59.30
2022-08-01T01:12:09.177Z,59.50
2022-08-01T01:14:47.568Z,59.60
2022-08-01T01:17:49.651Z,59.50
2022-08-01T01:20:13.903Z,59.70
2022-08-01T01:23:03.845Z,59.70
2022-08-01T01:25:53.311Z,59.50
2022-08-01T01:28:31.745Z,60.10
2022-08-01T01:31:04.329Z,59.80
2022-08-01T01:33:35.106Z,59.80
2022-08-01T01:36:15.526Z,60.00
2022-08-01T01:38:47.413Z,59.50
2022-08-01T01:41:19.038Z,59.60
2022-08-01T01:43:48.596Z,59.30
2022-08-01T01:46:24.617Z,59.10
2022-08-01T01:48:54.086Z,59.40
2022-08-01T01:51:24.247Z,59.00
2022-08-01T01:53:54.680Z,59.70
2022-08-01T01:56:23.800Z,60.30
2022-08-01T01:58:55.439Z,59.50
2022-08-01T02:01:57.949Z,59.50
2022-08-01T02:04:17.906Z,59.50
2022-08-01T02:06:47.692Z,59.50
2022-08-01T02:09:19.343Z,59.30
2022-08-01T02:12:08.073Z,59.00
2022-08-01T02:14:40.933Z,58.80
2022-08-01T02:17:13.453Z,58.60
2022-08-01T02:19:42.339Z,58.70
2022-08-01T02:22:16.043Z,58.50
2022-08-01T02:24:51.829Z,58.60
2022-08-01T02:27:27.784Z,58.40
2022-08-01T02:30:01.916Z,58.30
2022-08-01T02:32:36.737Z,58.50
2022-08-01T02:35:08.737Z,58.50
2022-08-01T02:37:41.850Z,58.30
2022-08-01T02:40:14.331Z,58.10
2022-08-01T02:42:46.084Z,58.10
2022-08-01T02:45:15.623Z,58.10
2022-08-01T02:47:47.971Z,58.10
2022-08-01T02:50:17.750Z,58.10
2022-08-01T02:52:48.031Z,58.30
2022-08-01T02:55:16.914Z,58.00
2022-08-01T02:57:52.056Z,58.00
2022-08-01T03:00:23.680Z,58.10
2022-08-01T03:02:56.718Z,58.30
2022-08-01T03:05:27.844Z,58.50
2022-08-01T03:08:02.625Z,58.40
2022-08-01T03:10:34.652Z,58.30
2022-08-01T03:13:04.957Z,58.40
2022-08-01T03:15:37.138Z,58.40
2022-08-01T03:18:10.340Z,58.30
2022-08-01T03:20:38.632Z,58.20
2022-08-01T03:23:09.966Z,58.10
2022-08-01T03:25:42.709Z,58.20
2022-08-01T03:28:14.529Z,58.30
2022-08-01T03:30:44.513Z,58.20
2022-08-01T03:33:14.503Z,58.70
2022-08-01T03:35:49.856Z,58.70
2022-08-01T03:38:23.550Z,58.90
2022-08-01T03:40:57.635Z,58.70
2022-08-01T03:43:32.981Z,58.60
2022-08-01T03:46:08.575Z,58.40
2022-08-01T03:48:42.969Z,58.20
2022-08-01T03:51:12.304Z,58.30
2022-08-01T03:53:43.136Z,58.30
2022-08-01T03:56:13.103Z,58.40
2022-08-01T03:58:43.307Z,58.50
2022-08-01T04:01:15.801Z,58.40
2022-08-01T04:03:46.410Z,59.00
2022-08-01T04:06:15.099Z,59.70
2022-08-01T04:08:43.644Z,60.70
2022-08-01T04:11:13.202Z,61.20
2022-08-01T04:13:44.319Z,62.40
2022-08-01T04:16:12.475Z,62.50
2022-08-01T04:18:40.586Z,62.50
2022-08-01T04:21:10.171Z,63.90
2022-08-01T04:23:40.359Z,63.60
2022-08-01T04:26:11.056Z,65.40
2022-08-01T04:28:41.232Z,65.50
2022-08-01T04:31:12.327Z,65.20
2022-08-01T04:33:42.850Z,65.50
2022-08-01T04:36:14.805Z,65.50
2022-08-01T04:38:47.662Z,66.00
2022-08-01T04:41:17.706Z,66.80
2022-08-01T04:43:45.890Z,67.00
2022-08-01T04:46:15.071Z,66.80
2022-08-01T04:48:44.158Z,66.50
2022-08-01T04:51:17.804Z,66.90
2022-08-01T04:53:47.110Z,67.30
2022-08-01T04:56:15.868Z,67.50
2022-08-01T04:58:44.791Z,68.20
2022-08-01T05:01:13.597Z,67.90
2022-08-01T05:03:42.226Z,67.50
2022-08-01T05:06:10.403Z,67.30
2022-08-01T05:08:39.924Z,67.60
2022-08-01T05:11:08.080Z,68.10
2022-08-01T05:13:36.808Z,67.40
2022-08-01T05:16:05.473Z,67.10
2022-08-01T05:18:33.657Z,67.20
2022-08-01T05:21:02.854Z,67.80
2022-08-01T05:23:43.168Z,67.80
2022-08-01T05:26:15.074Z,67.50
2022-08-01T05:28:44.548Z,68.20
2022-08-01T05:31:12.846Z,68.40
2022-08-01T05:33:41.051Z,68.30
2022-08-01T05:36:09.391Z,68.70
2022-08-01T05:38:37.535Z,69.20
2022-08-01T05:41:05.721Z,68.40
2022-08-01T05:43:35.261Z,68.80
2022-08-01T05:46:03.515Z,68.40
2022-08-01T05:48:31.739Z,68.80
2022-08-01T05:50:59.993Z,69.40
2022-08-01T05:53:28.648Z,69.30
2022-08-01T05:55:56.835Z,69.10
2022-08-01T05:58:25.022Z,67.70
2022-08-01T06:00:54.535Z,66.70
2022-08-01T06:03:22.651Z,66.00
2022-08-01T06:05:50.814Z,65.40
2022-08-01T06:08:18.928Z,64.90
2022-08-01T06:10:47.151Z,64.40
2022-08-01T06:13:17.089Z,64.10
2022-08-01T06:15:45.267Z,63.80
2022-08-01T06:18:14.826Z,63.90
2022-08-01T06:20:43.716Z,63.60
2022-08-01T06:23:31.749Z,64.00
2022-08-01T06:26:00.482Z,64.20
2022-08-01T06:28:28.650Z,63.80
2022-08-01T06:30:56.987Z,63.50
2022-08-01T06:33:26.965Z,63.70
2022-08-01T06:35:55.145Z,63.70
2022-08-01T06:38:23.852Z,63.30
2022-08-01T06:40:52.381Z,63.10
2022-08-01T06:43:20.684Z,62.90
2022-08-01T06:45:48.845Z,62.70
2022-08-01T06:48:16.975Z,62.70
2022-08-01T06:50:46.683Z,62.40
2022-08-01T06:53:14.846Z,62.60
2022-08-01T06:55:43.066Z,63.00
2022-08-01T06:58:11.168Z,63.00
2022-08-01T07:00:39.408Z,63.00
2022-08-01T07:03:08.015Z,63.80
2022-08-01T07:05:36.164Z,63.00
2022-08-01T07:08:06.452Z,63.00
2022-08-01T07:10:34.582Z,63.00
2022-08-01T07:13:02.716Z,62.80
2022-08-01T07:15:30.795Z,63.10
2022-08-01T07:18:02.382Z,63.10
2022-08-01T07:20:33.841Z,63.30
2022-08-01T07:23:07.559Z,63.40
2022-08-01T07:25:41.767Z,63.50
2022-08-01T07:28:23.570Z,64.00
2022-08-01T07:30:54.057Z,64.00
2022-08-01T07:33:23.697Z,64.00
2022-08-01T07:35:52.407Z,64.10
2022-08-01T07:38:21.929Z,63.90
2022-08-01T07:40:54.951Z,63.70
2022-08-01T07:43:23.168Z,64.20
2022-08-01T07:45:51.484Z,63.90
2022-08-01T07:48:20.711Z,63.70
2022-08-01T07:50:48.814Z,63.50
2022-08-01T07:53:16.981Z,63.50
2022-08-01T07:55:46.484Z,63.30
2022-08-01T07:58:15.685Z,63.70
2022-08-01T08:00:44.127Z,63.50
2022-08-01T08:03:12.230Z,63.50
2022-08-01T08:05:51.383Z,63.10
2022-08-01T08:08:28.472Z,63.00
2022-08-01T08:10:58.017Z,62.70
2022-08-01T08:13:26.181Z,63.40
2022-08-01T08:15:54.730Z,63.40
2022-08-01T08:18:22.875Z,63.10
2022-08-01T08:20:50.974Z,62.80
2022-08-01T08:23:43.443Z,62.50
2022-08-01T08:26:13.461Z,63.20
2022-08-01T08:28:41.788Z,63.20
2022-08-01T08:31:25.393Z,63.10
2022-08-01T08:33:58.556Z,62.70
2022-08-01T08:36:30.768Z,62.50
2022-08-01T08:39:01.356Z,62.40
2022-08-01T08:41:36.930Z,62.40
2022-08-01T08:44:10.018Z,62.20
2022-08-01T08:46:44.804Z,61.70
2022-08-01T08:49:17.248Z,61.70
2022-08-01T08:51:49.079Z,61.70
2022-08-01T08:54:17.993Z,61.40
2022-08-01T08:56:49.230Z,61.40
2022-08-01T08:59:17.423Z,61.30
2022-08-01T09:01:46.567Z,61.30
2022-08-01T09:04:14.988Z,61.20
2022-08-01T09:06:43.430Z,61.10
2022-08-01T09:09:12.477Z,61.00
2022-08-01T09:11:40.648Z,60.90
2022-08-01T09:14:14.806Z,60.80
2022-08-01T09:16:48.992Z,60.80
2022-08-01T09:19:39.974Z,61.40
2022-08-01T09:22:10.897Z,60.60
2022-08-01T09:24:41.293Z,60.40
2022-08-01T09:27:22.086Z,60.30
2022-08-01T09:30:00.964Z,60.10
2022-08-01T09:32:35.702Z,60.00
2022-08-01T09:35:29.801Z,60.10
2022-08-01T09:38:20.079Z,60.00
2022-08-01T09:40:51.864Z,60.10
2022-08-01T09:43:21.162Z,60.70
2022-08-01T09:45:52.994Z,60.00
2022-08-01T09:48:28.323Z,59.90
2022-08-01T09:51:04.983Z,59.90
2022-08-01T09:53:51.757Z,59.80
2022-08-01T09:56:22.734Z,59.80
2022-08-01T09:58:58.947Z,59.80
2022-08-01T10:01:37.324Z,59.80
2022-08-01T10:04:12.700Z,59.70
2022-08-01T10:06:43.643Z,59.60
2022-08-01T10:09:13.660Z,59.60
2022-08-01T10:11:44.919Z,59.50
2022-08-01T10:14:17.654Z,59.30
2022-08-01T10:16:53.003Z,59.30
2022-08-01T10:19:25.619Z,59.20
2022-08-01T10:22:00.202Z,59.20
2022-08-01T10:24:33.525Z,59.70
2022-08-01T10:27:08.318Z,59.00
2022-08-01T10:29:45.961Z,58.90
2022-08-01T10:32:29.597Z,59.00
2022-08-01T10:34:58.462Z,59.00
2022-08-01T10:37:27.298Z,59.00
2022-08-01T10:40:14.433Z,59.00
2022-08-01T10:42:46.710Z,58.90
2022-08-01T10:45:17.297Z,58.90
2022-08-01T10:47:57.118Z,58.80
2022-08-01T10:50:34.264Z,59.30
2022-08-01T10:53:16.225Z,58.60
2022-08-01T10:55:55.057Z,58.50
2022-08-01T10:58:26.155Z,58.40
2022-08-01T11:01:18.425Z,58.40
2022-08-01T11:04:07.058Z,58.20
2022-08-01T11:07:04.989Z,58.30
2022-08-01T11:09:48.219Z,58.20
2022-08-01T11:12:24.415Z,58.10
2022-08-01T11:15:29.178Z,58.10
2022-08-01T11:18:05.213Z,58.00
2022-08-01T11:20:41.513Z,57.90
2022-08-01T11:23:21.540Z,57.90
2022-08-01T11:26:18.100Z,57.80
2022-08-01T11:29:22.371Z,57.90
2022-08-01T11:31:52.992Z,58.10
2022-08-01T11:34:21.621Z,58.00
2022-08-01T11:36:59.697Z,58.10
2022-08-01T11:39:29.584Z,57.90
2022-08-01T11:42:18.021Z,57.90
2022-08-01T11:44:56.131Z,57.90
2022-08-01T11:47:48.152Z,57.90
2022-08-01T11:50:36.379Z,57.90
2022-08-01T11:53:09.241Z,57.90
2022-08-01T11:55:45.556Z,57.80
2022-08-01T11:58:27.579Z,57.80
2022-08-01T12:01:00.510Z,57.80
2022-08-01T12:03:33.521Z,57.80
2022-08-01T12:06:02.947Z,57.80
2022-08-01T12:08:35.802Z,57.80
2022-08-01T12:11:06.909Z,57.80
2022-08-01T12:13:43.040Z,57.70
2022-08-01T12:16:12.487Z,57.70
2022-08-01T12:18:41.894Z,57.80
2022-08-01T12:21:10.660Z,57.80
2022-08-01T12:23:40.500Z,57.80
2022-08-01T12:26:08.757Z,57.70
2022-08-01T12:28:56.863Z,57.60
2022-08-01T12:31:34.620Z,57.60
2022-08-01T12:34:29.910Z,57.70
2022-08-01T12:37:00.649Z,57.50
2022-08-01T12:39:34.906Z,57.50
2022-08-01T12:42:03.522Z,57.50
2022-08-01T12:44:32.806Z,57.50
2022-08-01T12:47:02.860Z,57.50
2022-08-01T12:49:31.574Z,57.40
2022-08-01T12:52:00.203Z,57.40
2022-08-01T12:54:28.398Z,57.40
2022-08-01T12:56:59.042Z,57.40
2022-08-01T12:59:30.446Z,57.40
2022-08-01T13:01:59.566Z,57.30
2022-08-01T13:04:27.815Z,57.40
2022-08-01T13:06:56.283Z,57.40
2022-08-01T13:09:24.521Z,57.40
2022-08-01T13:12:03.716Z,57.40
2022-08-01T13:14:33.984Z,57.40
2022-08-01T13:17:02.164Z,57.30
2022-08-01T13:19:44.603Z,57.20
2022-08-01T13:22:12.915Z,57.20
2022-08-01T13:24:41.172Z,57.20
2022-08-01T13:27:09.627Z,57.20
2022-08-01T13:29:42.351Z,57.10
2022-08-01T13:32:28.059Z,57.00
2022-08-01T13:35:04.378Z,57.00
2022-08-01T13:37:32.676Z,57.00
2022-08-01T13:40:00.883Z,56.80
2022-08-01T13:42:30.149Z,56.80
2022-08-01T13:44:59.902Z,56.70
2022-08-01T13:47:31.554Z,56.70
2022-08-01T13:50:03.737Z,56.70
2022-08-01T13:52:33.156Z,56.60
2022-08-01T13:55:02.093Z,56.50
2022-08-01T13:57:36.800Z,56.50
2022-08-01T14:00:11.062Z,56.50
2022-08-01T14:02:41.963Z,56.50
2022-08-01T14:05:10.830Z,56.40
2022-08-01T14:07:39.024Z,56.50
2022-08-01T14:10:20.002Z,56.40
2022-08-01T14:12:49.428Z,56.30
2022-08-01T14:15:37.778Z,56.40
2022-08-01T14:18:08.032Z,56.40
2022-08-01T14:20:39.773Z,56.30
2022-08-01T14:23:09.035Z,56.20
2022-08-01T14:26:01.563Z,56.20
2022-08-01T14:28:28.344Z,56.10
2022-08-01T14:30:58.622Z,56.10
2022-08-01T14:33:27.163Z,56.10
2022-08-01T14:36:06.086Z,56.10
2022-08-01T14:38:46.264Z,56.20
2022-08-01T14:41:15.500Z,56.20
2022-08-01T14:43:43.644Z,56.20
2022-08-01T14:46:14.137Z,56.10
2022-08-01T14:48:42.551Z,56.10
2022-08-01T14:51:10.932Z,56.10
2022-08-01T14:53:40.324Z,56.20
2022-08-01T14:56:12.363Z,56.10
2022-08-01T14:58:40.496Z,56.10
2022-08-01T15:01:08.737Z,56.10
2022-08-01T15:03:38.385Z,56.10
2022-08-01T15:06:07.910Z,56.10
2022-08-01T15:08:36.007Z,56.20
2022-08-01T15:11:04.114Z,56.10
2022-08-01T15:13:32.397Z,56.10
2022-08-01T15:16:01.187Z,56.10
2022-08-01T15:18:29.702Z,56.10
2022-08-01T15:20:59.264Z,56.10
2022-08-01T15:23:27.398Z,56.00
2022-08-01T15:25:55.579Z,56.00
2022-08-01T15:28:23.719Z,56.10
2022-08-01T15:30:51.843Z,56.00
2022-08-01T15:33:22.189Z,56.00
2022-08-01T15:35:50.348Z,55.90
2022-08-01T15:38:23.426Z,55.80
2022-08-01T15:40:51.590Z,55.80
2022-08-01T15:43:19.803Z,55.80
2022-08-01T15:45:49.291Z,55.90
2022-08-01T15:48:18.212Z,55.90
2022-08-01T15:50:46.537Z,55.90
2022-08-01T15:53:14.701Z,55.90
2022-08-01T15:55:52.099Z,56.00
2022-08-01T15:58:21.246Z,56.00
2022-08-01T16:00:49.509Z,56.00
2022-08-01T16:03:17.689Z,56.00
2022-08-01T16:05:46.031Z,55.90
2022-08-01T16:08:14.875Z,55.90
2022-08-01T16:10:44.423Z,55.90
2022-08-01T16:13:12.905Z,55.90
2022-08-01T16:15:41.423Z,55.80
2022-08-01T16:18:12.964Z,55.80
2022-08-01T16:20:45.393Z,55.70
2022-08-01T16:23:14.711Z,55.70
2022-08-01T16:25:45.247Z,55.70
2022-08-01T16:28:14.133Z,55.70
2022-08-01T16:30:53.293Z,55.70
2022-08-01T16:33:47.351Z,55.60
2022-08-01T16:36:21.000Z,55.60
2022-08-01T16:38:49.131Z,55.40
2022-08-01T16:41:20.872Z,55.30
2022-08-01T16:43:53.936Z,55.40
2022-08-01T16:46:24.852Z,55.40
2022-08-01T16:48:53.379Z,55.30
2022-08-01T16:51:21.871Z,55.40
2022-08-01T16:53:50.101Z,55.40
2022-08-01T16:56:20.207Z,57.00
2022-08-01T16:58:48.461Z,56.20
2022-08-01T17:01:59.660Z,56.50
2022-08-01T17:04:06.795Z,56.20
2022-08-01T17:06:34.968Z,55.80
2022-08-01T17:09:04.550Z,55.70
2022-08-01T17:11:35.426Z,55.60
2022-08-01T17:14:03.733Z,55.40
2022-08-01T17:16:31.932Z,55.50
2022-08-01T17:19:00.090Z,55.40
2022-08-01T17:21:28.332Z,55.60
2022-08-01T17:23:56.803Z,56.00
2022-08-01T17:26:24.944Z,55.40
2022-08-01T17:28:54.492Z,55.40
2022-08-01T17:31:22.611Z,55.30
2022-08-01T17:33:54.727Z,55.30
2022-08-01T17:36:23.528Z,55.50
2022-08-01T17:38:51.727Z,55.40
2022-08-01T17:41:19.919Z,55.40
2022-08-01T17:43:48.062Z,55.30
2022-08-01T17:46:18.083Z,55.30
2022-08-01T17:48:46.671Z,55.20
2022-08-01T17:51:19.384Z,55.30
2022-08-01T17:53:56.861Z,55.40
2022-08-01T17:56:26.790Z,55.40
2022-08-01T17:58:55.265Z,55.40
2022-08-01T18:01:26.826Z,55.40
2022-08-01T18:03:57.414Z,55.40
2022-08-01T18:06:27.009Z,55.40
2022-08-01T18:08:56.689Z,55.40
2022-08-01T18:11:27.968Z,55.40
2022-08-01T18:13:57.068Z,55.40
2022-08-01T18:16:29.503Z,55.40
2022-08-01T18:18:57.690Z,55.40
2022-08-01T18:21:26.056Z,55.60
2022-08-01T18:23:54.260Z,56.80
2022-08-01T18:26:23.255Z,56.30
2022-08-01T18:28:51.609Z,56.00
2022-08-01T18:31:20.793Z,55.80
2022-08-01T18:33:50.594Z,55.70
2022-08-01T18:36:32.377Z,55.60
2022-08-01T18:39:04.543Z,55.50
2022-08-01T18:41:33.732Z,55.50
2022-08-01T18:44:04.275Z,55.50
2022-08-01T18:46:36.217Z,55.50
2022-08-01T18:49:07.154Z,55.50
2022-08-01T18:51:38.928Z,55.40
2022-08-01T18:54:11.403Z,55.40
2022-08-01T18:56:39.904Z,55.40
2022-08-01T18:59:08.257Z,55.40
2022-08-01T19:01:36.713Z,55.30
2022-08-01T19:04:06.793Z,55.40
2022-08-01T19:06:35.137Z,55.30
2022-08-01T19:09:03.708Z,55.40
2022-08-01T19:11:33.105Z,55.30
2022-08-01T19:14:02.341Z,55.30
2022-08-01T19:16:31.650Z,55.20
2022-08-01T19:18:59.900Z,55.20
2022-08-01T19:21:30.167Z,55.10
2022-08-01T19:24:15.973Z,55.10
2022-08-01T19:26:49.480Z,55.20
2022-08-01T19:29:21.479Z,55.30
2022-08-01T19:31:51.146Z,55.30
2022-08-01T19:34:26.422Z,55.80
2022-08-01T19:36:58.871Z,56.40
2022-08-01T19:39:28.305Z,56.00
2022-08-01T19:41:59.404Z,55.40
2022-08-01T19:44:29.579Z,55.10
2022-08-01T19:46:58.054Z,55.40
2022-08-01T19:49:26.309Z,55.30
2022-08-01T19:52:02.186Z,54.90
2022-08-01T19:54:35.377Z,54.80
2022-08-01T19:57:08.072Z,54.60
2022-08-01T19:59:37.881Z,54.50
2022-08-01T20:02:07.855Z,54.60
2022-08-01T20:04:36.773Z,54.30
2022-08-01T20:07:06.543Z,54.40
2022-08-01T20:09:35.455Z,54.20
2022-08-01T20:12:04.089Z,54.30
2022-08-01T20:14:32.283Z,54.10
2022-08-01T20:17:00.713Z,54.10
2022-08-01T20:19:29.410Z,54.00
2022-08-01T20:22:02.308Z,54.00
2022-08-01T20:24:41.425Z,53.90
2022-08-01T20:27:13.423Z,54.00
2022-08-01T20:29:42.747Z,53.90
2022-08-01T20:32:11.017Z,53.70
2022-08-01T20:34:40.304Z,53.70
2022-08-01T20:37:13.225Z,53.60
2022-08-01T20:39:45.232Z,53.60
2022-08-01T20:42:14.312Z,53.50
2022-08-01T20:44:45.273Z,53.60
2022-08-01T20:47:15.264Z,53.50
2022-08-01T20:49:44.977Z,53.50
2022-08-01T20:52:13.209Z,53.50
2022-08-01T20:54:44.166Z,53.50
2022-08-01T20:57:20.315Z,53.60
2022-08-01T20:59:57.290Z,53.70
2022-08-01T21:02:42.526Z,53.60
2022-08-01T21:05:12.815Z,53.70
2022-08-01T21:07:49.521Z,53.60
2022-08-01T21:10:22.111Z,53.50
2022-08-01T21:12:55.115Z,53.40
2022-08-01T21:15:31.339Z,53.50
2022-08-01T21:18:05.096Z,53.30
2022-08-01T21:20:37.944Z,53.30
2022-08-01T21:23:23.006Z,53.20
2022-08-01T21:25:53.331Z,53.20
2022-08-01T21:28:22.211Z,53.20
2022-08-01T21:30:55.717Z,53.20
2022-08-01T21:33:25.561Z,53.20
2022-08-01T21:35:58.346Z,53.20
2022-08-01T21:38:29.770Z,53.10
2022-08-01T21:41:03.356Z,53.40
2022-08-01T21:43:33.935Z,53.40
2022-08-01T21:46:03.619Z,53.40
2022-08-01T21:48:32.787Z,53.50
2022-08-01T21:51:10.803Z,53.40
2022-08-01T21:53:51.415Z,53.60
2022-08-01T21:56:32.764Z,53.50
2022-08-01T21:59:15.190Z,53.50
2022-08-01T22:01:53.200Z,53.50
2022-08-01T22:04:38.438Z,53.60
2022-08-01T22:07:09.628Z,53.60
2022-08-01T22:09:40.152Z,53.60
2022-08-01T22:12:14.757Z,53.50
2022-08-01T22:14:50.883Z,53.60
2022-08-01T22:17:24.084Z,53.40
2022-08-01T22:19:55.036Z,53.30
2022-08-01T22:22:45.063Z,53.30
2022-08-01T22:25:12.919Z,53.30
2022-08-01T22:28:06.438Z,53.40
2022-08-01T22:30:31.176Z,53.50
2022-08-01T22:33:07.915Z,53.40
2022-08-01T22:35:46.846Z,53.50
2022-08-01T22:38:17.390Z,53.50
2022-08-01T22:40:50.976Z,53.50
2022-08-01T22:43:27.119Z,53.50
2022-08-01T22:46:16.776Z,53.60
2022-08-01T22:48:49.927Z,53.50
2022-08-01T22:51:33.226Z,53.50
2022-08-01T22:54:07.043Z,53.50
2022-08-01T22:56:40.393Z,53.50
2022-08-01T22:59:16.408Z,53.50
2022-08-01T23:01:50.435Z,53.50
2022-08-01T23:04:33.497Z,53.40
2022-08-01T23:07:06.812Z,53.60
2022-08-01T23:09:53.498Z,53.50
2022-08-01T23:12:25.555Z,54.00
2022-08-01T23:14:57.515Z,53.50
2022-08-01T23:17:29.122Z,53.40
2022-08-01T23:20:01.005Z,53.40
2022-08-01T23:22:32.324Z,53.40
2022-08-01T23:25:06.306Z,53.40
2022-08-01T23:27:55.878Z,53.40
2022-08-01T23:30:31.793Z,53.40
2022-08-01T23:33:00.362Z,53.40
2022-08-01T23:35:30.314Z,53.40
2022-08-01T23:38:02.786Z,53.40
2022-08-01T23:40:32.275Z,53.40
2022-08-01T23:43:02.765Z,53.40
2022-08-01T23:46:02.200Z,53.40
2022-08-01T23:48:21.631Z,53.40
2022-08-01T23:50:52.101Z,53.40
2022-08-01T23:53:20.272Z,53.50
2022-08-01T23:55:49.003Z,53.50
2022-08-01T23:58:18.109Z,52.20
